createdAt,value
2023-03-14T00:01:49.762Z,98757.16
2023-03-14T00:04:21.728Z,98758.06
2023-03-14T00:06:53.652Z,98757.19
2023-03-14T00:09:27.530Z,98758.09
2023-03-14T00:11:59.751Z,98757.22
2023-03-14T00:14:33.102Z,98752.88
2023-03-14T00:17:05.046Z,98765.22
2023-03-14T00:19:37.002Z,98768.78
2023-03-14T00:22:08.960Z,98782.03
2023-03-14T00:24:40.861Z,98782.97
2023-03-14T00:27:12.819Z,98775.13
2023-03-14T00:29:45.100Z,98777.81
2023-03-14T00:32:17.043Z,98781.34
2023-03-14T00:34:49.100Z,98796.31
2023-03-14T00:37:21.284Z,98799.03
2023-03-14T00:39:53.463Z,98792.03
2023-03-14T00:42:25.432Z,98796.44
2023-03-14T00:44:57.366Z,98804.31
2023-03-14T00:47:29.333Z,98806.97
2023-03-14T00:50:01.288Z,98803.47
2023-03-14T00:52:33.451Z,98807.00
2023-03-14T00:55:06.255Z,98804.41
2023-03-14T00:57:38.236Z,98800.03
2023-03-14T01:00:13.231Z,98800.94
2023-03-14T01:02:45.355Z,98790.41
2023-03-14T01:05:17.421Z,98786.88
2023-03-14T01:07:49.767Z,98789.50
2023-03-14T01:10:21.863Z,98794.78
2023-03-14T01:12:53.867Z,98796.53
2023-03-14T01:15:26.034Z,98806.19
2023-03-14T01:17:57.971Z,98801.78
2023-03-14T01:20:30.009Z,98790.38
2023-03-14T01:23:01.978Z,98790.38
2023-03-14T01:25:33.902Z,98779.03
2023-03-14T01:28:05.948Z,98780.78
2023-03-14T01:30:37.882Z,98768.47
2023-03-14T01:33:09.820Z,98772.91
2023-03-14T01:35:41.843Z,98768.56
2023-03-14T01:38:13.872Z,98747.53
2023-03-14T01:40:46.111Z,98755.41
2023-03-14T01:43:20.901Z,98757.16
2023-03-14T01:46:09.822Z,98742.31
2023-03-14T01:49:05.743Z,98744.03
2023-03-14T01:52:11.104Z,98738.75
2023-03-14T01:55:03.811Z,98738.81
2023-03-14T01:57:46.226Z,98726.56
2023-03-14T02:00:23.318Z,98735.34
2023-03-14T02:03:02.602Z,98732.69
2023-03-14T02:05:40.596Z,98736.22
2023-03-14T02:08:18.572Z,98734.50
2023-03-14T02:10:51.968Z,98736.25
2023-03-14T02:13:24.237Z,98733.63
2023-03-14T02:15:56.307Z,98719.56
2023-03-14T02:18:28.628Z,98726.63
2023-03-14T02:21:44.892Z,98731.09
2023-03-14T02:24:43.888Z,98723.16
2023-03-14T02:27:20.069Z,98728.41
2023-03-14T02:30:11.925Z,98732.81
2023-03-14T02:32:49.833Z,98724.00
2023-03-14T02:35:30.456Z,98713.47
2023-03-14T02:38:16.209Z,98711.72
2023-03-14T02:40:48.528Z,98692.50
2023-03-14T02:43:21.000Z,98708.19
2023-03-14T02:45:53.704Z,98711.69
2023-03-14T02:48:42.643Z,98699.38
2023-03-14T02:51:16.320Z,98706.38
2023-03-14T02:53:48.350Z,98697.59
2023-03-14T02:56:20.361Z,98688.88
2023-03-14T02:58:52.402Z,98709.00
2023-03-14T03:01:25.046Z,98717.75
2023-03-14T03:03:57.072Z,98712.53
2023-03-14T03:06:29.063Z,98715.19
2023-03-14T03:09:01.410Z,98712.56
2023-03-14T03:11:33.367Z,98721.34
2023-03-14T03:14:05.434Z,98727.50
2023-03-14T03:16:37.349Z,98730.09
2023-03-14T03:19:09.314Z,98720.47
2023-03-14T03:21:41.447Z,98708.22
2023-03-14T03:24:13.452Z,98691.59
2023-03-14T03:26:45.444Z,98708.22
2023-03-14T03:29:17.721Z,98709.97
2023-03-14T03:31:49.656Z,98696.84
2023-03-14T03:34:21.600Z,98702.97
2023-03-14T03:36:53.540Z,98703.00
2023-03-14T03:39:25.469Z,98710.94
2023-03-14T03:41:57.441Z,98698.69
2023-03-14T03:44:29.407Z,98705.69
2023-03-14T03:47:01.316Z,98703.94
2023-03-14T03:49:33.863Z,98692.53
2023-03-14T03:52:06.045Z,98693.47
2023-03-14T03:54:38.085Z,98684.69
2023-03-14T03:57:10.132Z,98697.00
2023-03-14T03:59:42.203Z,98694.38
2023-03-14T04:02:14.211Z,98688.28
2023-03-14T04:04:46.472Z,98695.31
2023-03-14T04:07:18.690Z,98684.81
2023-03-14T04:09:50.864Z,98688.31
2023-03-14T04:12:22.830Z,98683.91
2023-03-14T04:14:54.838Z,98689.19
2023-03-14T04:17:26.790Z,98683.91
2023-03-14T04:19:58.737Z,98678.69
2023-03-14T04:22:30.716Z,98683.94
2023-03-14T04:25:04.417Z,98693.63
2023-03-14T04:27:36.461Z,98682.25
2023-03-14T04:30:09.692Z,98690.13
2023-03-14T04:32:41.661Z,98679.63
2023-03-14T04:35:13.690Z,98678.78
2023-03-14T04:37:45.624Z,98685.81
2023-03-14T04:40:18.761Z,98679.66
2023-03-14T04:42:50.901Z,98677.09
2023-03-14T04:45:22.832Z,98670.09
2023-03-14T04:47:54.792Z,98669.22
2023-03-14T04:50:26.785Z,98660.44
2023-03-14T04:52:58.798Z,98653.53
2023-03-14T04:55:30.769Z,98681.53
2023-03-14T04:58:02.731Z,98679.81
2023-03-14T05:00:34.953Z,98692.09
2023-03-14T05:03:06.863Z,98685.94
2023-03-14T05:05:38.901Z,98686.84
2023-03-14T05:08:11.568Z,98685.09
2023-03-14T05:10:43.539Z,98686.00
2023-03-14T05:13:15.552Z,98679.88
2023-03-14T05:15:47.681Z,98688.63
2023-03-14T05:18:20.085Z,98683.38
2023-03-14T05:20:53.108Z,98683.38
2023-03-14T05:23:25.100Z,98681.63
2023-03-14T05:25:57.053Z,98667.66
2023-03-14T05:28:29.382Z,98686.03
2023-03-14T05:31:01.285Z,98688.63
2023-03-14T05:33:33.273Z,98683.38
2023-03-14T05:36:06.070Z,98635.28
2023-03-14T05:38:38.175Z,98662.34
2023-03-14T05:41:10.154Z,98660.59
2023-03-14T05:43:42.113Z,98661.50
2023-03-14T05:46:14.079Z,98663.22
2023-03-14T05:48:46.085Z,98664.13
2023-03-14T05:51:18.084Z,98665.88
2023-03-14T05:53:50.177Z,98658.84
2023-03-14T05:56:22.130Z,98645.69
2023-03-14T05:58:54.061Z,98652.72
2023-03-14T06:01:25.991Z,98653.59
2023-03-14T06:03:57.940Z,98657.97
2023-03-14T06:06:29.855Z,98659.69
2023-03-14T06:09:01.809Z,98642.22
2023-03-14T06:11:33.775Z,98651.81
2023-03-14T06:14:05.812Z,98646.56
2023-03-14T06:16:37.811Z,98645.72
2023-03-14T06:19:09.813Z,98656.25
2023-03-14T06:21:41.809Z,98645.75
2023-03-14T06:24:13.815Z,98658.91
2023-03-14T06:26:45.730Z,98654.53
2023-03-14T06:29:17.650Z,98640.53
2023-03-14T06:31:49.631Z,98657.13
2023-03-14T06:34:21.758Z,98659.75
2023-03-14T06:36:53.750Z,98641.41
2023-03-14T06:39:26.115Z,98651.00
2023-03-14T06:41:58.102Z,98655.38
2023-03-14T06:44:30.045Z,98661.50
2023-03-14T06:47:02.164Z,98666.72
2023-03-14T06:49:34.242Z,98666.78
2023-03-14T06:52:06.211Z,98670.25
2023-03-14T06:54:38.272Z,98670.28
2023-03-14T06:57:10.249Z,98673.72
2023-03-14T06:59:42.181Z,98675.47
2023-03-14T07:02:14.681Z,98679.84
2023-03-14T07:04:46.725Z,98678.06
2023-03-14T07:07:18.711Z,98699.09
2023-03-14T07:09:50.792Z,98690.34
2023-03-14T07:12:22.988Z,98667.66
2023-03-14T07:14:55.598Z,98699.13
2023-03-14T07:17:27.606Z,98703.50
2023-03-14T07:20:00.310Z,98678.13
2023-03-14T07:22:32.781Z,98715.78
2023-03-14T07:25:05.715Z,98712.28
2023-03-14T07:27:37.654Z,98712.25
2023-03-14T07:30:10.722Z,98724.53
2023-03-14T07:32:42.760Z,98730.69
2023-03-14T07:35:14.801Z,98773.63
2023-03-14T07:37:46.700Z,98805.13
2023-03-14T07:40:18.808Z,98818.31
2023-03-14T07:42:51.027Z,98839.31
2023-03-14T07:45:24.956Z,98854.19
2023-03-14T07:47:58.596Z,98855.03
2023-03-14T07:50:30.864Z,98856.78
2023-03-14T07:53:02.824Z,98880.41
2023-03-14T07:55:35.115Z,98886.50
2023-03-14T07:58:07.552Z,98889.13
2023-03-14T08:00:39.989Z,98899.50
2023-03-14T08:03:12.036Z,98914.34
2023-03-14T08:05:45.710Z,98914.31
2023-03-14T08:08:18.820Z,98927.44
2023-03-14T08:10:50.814Z,98946.69
2023-03-14T08:13:24.736Z,98942.25
2023-03-14T08:15:56.675Z,98950.97
2023-03-14T08:18:28.636Z,98950.06
2023-03-14T08:21:00.783Z,98971.09
2023-03-14T08:23:32.838Z,98978.03
2023-03-14T08:26:05.104Z,98995.47
2023-03-14T08:28:41.152Z,99002.44
2023-03-14T08:31:13.197Z,99021.56
2023-03-14T08:33:45.413Z,99024.13
2023-03-14T08:36:17.356Z,99033.78
2023-03-14T08:38:49.382Z,99050.34
2023-03-14T08:41:21.705Z,99053.81
2023-03-14T08:43:53.739Z,99059.09
2023-03-14T08:46:25.839Z,99056.44
2023-03-14T08:48:57.753Z,99081.03
2023-03-14T08:51:29.854Z,99091.53
2023-03-14T08:54:01.793Z,99095.81
2023-03-14T08:56:33.694Z,99101.00
2023-03-14T08:59:06.377Z,99088.75
2023-03-14T09:01:38.416Z,99120.31
2023-03-14T09:04:10.798Z,99129.88
2023-03-14T09:06:42.937Z,99137.81
2023-03-14T09:09:14.990Z,99143.09
2023-03-14T09:11:47.097Z,99146.59
2023-03-14T09:14:19.151Z,99157.97
2023-03-14T09:16:51.943Z,99164.09
2023-03-14T09:40:29.709Z,99257.50
2023-03-14T09:43:03.835Z,99160.50
2023-03-14T09:45:43.844Z,99288.09
2023-03-14T09:54:51.433Z,99347.41
2023-03-14T09:57:27.137Z,99351.78
2023-03-14T10:00:15.104Z,99372.78
2023-03-14T10:03:08.526Z,99380.50
2023-03-14T10:05:42.923Z,99399.75
2023-03-14T10:08:15.415Z,99413.81
2023-03-14T10:10:47.417Z,99412.38
2023-03-14T10:13:27.519Z,99437.13
2023-03-14T10:16:07.385Z,99445.13
2023-03-14T10:18:45.943Z,99457.41
2023-03-14T10:21:37.435Z,99475.81
2023-03-14T10:24:27.247Z,99480.22
2023-03-14T10:27:06.955Z,99493.44
2023-03-14T10:29:59.543Z,99501.97
2023-03-14T10:32:43.203Z,99519.31
2023-03-14T10:35:15.208Z,99527.25
2023-03-14T10:37:55.461Z,99531.69
2023-03-14T10:40:39.557Z,99546.56
2023-03-14T10:43:32.497Z,99556.19
2023-03-14T10:46:18.662Z,99576.09
2023-03-14T10:48:50.807Z,99577.13
2023-03-14T10:51:31.525Z,99587.75
2023-03-14T10:54:20.573Z,99606.06
2023-03-14T10:57:01.725Z,99604.94
2023-03-14T10:59:42.487Z,99613.56
2023-03-14T11:02:35.662Z,99630.91
2023-03-14T11:05:43.133Z,99641.41
2023-03-14T11:08:28.765Z,99649.50
2023-03-14T11:11:26.381Z,99658.31
2023-03-14T11:14:10.158Z,99673.22
2023-03-14T11:17:24.189Z,99677.31
2023-03-14T11:20:53.695Z,99684.25
2023-03-14T11:23:34.050Z,99701.75
2023-03-14T11:26:21.034Z,99699.03
2023-03-14T11:29:03.229Z,99713.25
2023-03-14T11:31:41.526Z,99725.38
2023-03-14T11:34:25.290Z,99742.88
2023-03-14T11:37:05.668Z,99743.78
2023-03-14T11:39:48.090Z,99756.00
2023-03-14T11:42:21.658Z,99781.34
2023-03-14T11:44:57.639Z,99794.41
2023-03-14T11:47:40.822Z,99814.19
2023-03-14T11:50:29.759Z,99815.19
2023-03-14T11:53:17.733Z,99818.53
2023-03-14T11:55:51.009Z,99823.66
2023-03-14T11:58:31.906Z,99783.91
2023-03-14T12:01:12.206Z,99833.41
2023-03-14T12:03:57.294Z,99839.63
2023-03-14T12:06:50.952Z,99845.88
2023-03-14T12:09:24.312Z,99841.72
2023-03-14T12:12:05.186Z,99850.59
2023-03-14T12:14:46.567Z,99858.75
2023-03-14T12:17:35.229Z,99878.03
2023-03-14T12:20:24.372Z,99883.22
2023-03-14T12:23:13.029Z,99900.41
2023-03-14T12:25:45.050Z,99898.69
2023-03-14T12:28:31.268Z,99898.69
2023-03-14T12:31:31.514Z,99901.56
2023-03-14T12:34:04.887Z,99905.75
2023-03-14T12:36:55.450Z,99897.66
2023-03-14T12:39:56.760Z,99908.34
2023-03-14T12:42:44.605Z,99909.25
2023-03-14T12:45:35.246Z,99906.81
2023-03-14T12:48:26.003Z,99909.00
2023-03-14T12:51:14.729Z,99911.38
2023-03-14T12:53:58.990Z,99914.38
2023-03-14T12:56:55.559Z,99927.81
2023-03-14T12:59:35.332Z,99926.25
2023-03-14T13:02:07.228Z,99930.00
2023-03-14T13:04:54.964Z,99926.44
2023-03-14T13:07:47.687Z,99940.53
2023-03-14T13:10:49.981Z,99942.59
2023-03-14T13:13:27.066Z,99944.66
2023-03-14T13:16:04.898Z,99966.56
2023-03-14T13:18:44.109Z,99957.63
2023-03-14T13:21:23.100Z,99965.31
2023-03-14T13:24:26.837Z,99969.59
2023-03-14T13:26:59.188Z,99975.75
2023-03-14T13:29:36.433Z,99979.38
2023-03-14T13:32:22.555Z,99984.72
2023-03-14T13:35:00.785Z,99988.31
2023-03-14T13:37:40.809Z,99983.38
2023-03-14T13:40:35.264Z,99987.31
2023-03-14T13:43:33.909Z,99992.78
2023-03-14T13:46:08.047Z,99989.28
2023-03-14T13:49:06.052Z,100001.50
2023-03-14T13:51:40.994Z,100016.56
2023-03-14T13:54:20.268Z,100020.03
2023-03-14T13:57:05.875Z,100022.66
2023-03-14T13:59:37.898Z,100025.34
2023-03-14T14:02:18.473Z,100044.44
2023-03-14T14:04:50.800Z,100059.31
2023-03-14T14:07:22.964Z,100069.81
2023-03-14T14:22:19.490Z,100131.19
2023-03-14T14:24:53.066Z,100132.03
2023-03-14T14:27:42.114Z,100156.50
2023-03-14T14:34:21.070Z,100171.78
2023-03-14T14:36:53.570Z,100175.94
2023-03-14T14:39:30.047Z,100174.91
2023-03-14T14:42:02.278Z,100181.75
2023-03-14T14:44:37.195Z,100195.41
2023-03-14T14:47:19.901Z,100200.44
2023-03-14T14:49:56.009Z,100219.00
2023-03-14T14:52:47.247Z,100196.72
2023-03-14T14:55:21.049Z,100214.09
2023-03-14T14:57:59.638Z,100205.81
2023-03-14T15:00:32.593Z,100232.94
2023-03-14T15:03:04.685Z,100244.94
2023-03-14T15:05:38.062Z,100246.50
2023-03-14T15:08:12.232Z,100257.59
2023-03-14T15:10:44.405Z,100267.00
2023-03-14T15:13:16.404Z,100276.69
2023-03-14T15:15:50.893Z,100286.31
2023-03-14T15:18:27.097Z,100296.28
2023-03-14T15:21:01.189Z,100299.53
2023-03-14T15:23:33.310Z,100309.41
2023-03-14T15:26:16.972Z,100306.81
2023-03-14T15:28:49.335Z,100322.63
2023-03-14T15:31:22.492Z,100314.16
2023-03-14T15:33:54.582Z,100330.47
2023-03-14T15:36:34.212Z,100340.72
2023-03-14T15:39:08.429Z,100349.47
2023-03-14T15:41:40.323Z,100354.44
2023-03-14T15:44:12.277Z,100315.03
2023-03-14T15:46:44.207Z,100341.66
2023-03-14T15:49:16.245Z,100365.47
2023-03-14T15:51:48.233Z,100366.03
2023-03-14T15:54:20.605Z,100375.34
2023-03-14T15:56:53.163Z,100390.84
2023-03-14T15:59:26.373Z,100380.81
2023-03-14T16:01:58.375Z,100398.94
2023-03-14T16:04:30.605Z,100398.75
2023-03-14T16:07:02.824Z,100403.97
2023-03-14T16:09:34.841Z,100413.56
2023-03-14T16:12:08.738Z,100403.63
2023-03-14T16:14:43.762Z,100424.84
2023-03-14T16:17:15.935Z,100424.97
2023-03-14T16:19:48.260Z,100422.41
2023-03-14T16:22:20.315Z,100430.47
2023-03-14T16:24:52.276Z,100440.41
2023-03-14T16:27:24.253Z,100440.47
2023-03-14T16:29:56.186Z,100458.03
2023-03-14T16:32:28.826Z,100459.38
2023-03-14T16:35:01.246Z,100472.03
2023-03-14T16:37:34.960Z,100475.97
2023-03-14T16:40:12.690Z,100480.38
2023-03-14T16:43:14.532Z,100483.78
2023-03-14T16:45:38.220Z,100488.88
2023-03-14T16:48:10.377Z,100494.84
2023-03-14T16:50:43.309Z,100496.06
2023-03-14T16:53:15.264Z,100510.16
2023-03-14T16:55:47.576Z,100517.19
2023-03-14T16:58:21.335Z,100511.72
2023-03-14T17:00:53.754Z,100511.28
2023-03-14T17:03:27.900Z,100516.72
2023-03-14T17:06:00.013Z,100519.56
2023-03-14T17:08:32.248Z,100528.22
2023-03-14T17:11:04.641Z,100534.25
2023-03-14T17:13:37.258Z,100530.66
2023-03-14T17:16:10.100Z,100539.31
2023-03-14T17:18:42.375Z,100542.72
2023-03-14T17:21:14.477Z,100543.63
2023-03-14T17:23:46.474Z,100549.88
2023-03-14T17:26:19.243Z,100553.09
2023-03-14T17:28:51.936Z,100566.91
2023-03-14T17:31:24.292Z,100582.41
2023-03-14T17:33:56.256Z,100579.81
2023-03-14T17:36:32.628Z,100587.88
2023-03-14T17:39:04.540Z,100595.91
2023-03-14T17:41:36.592Z,100601.16
2023-03-14T17:44:10.464Z,100599.16
2023-03-14T17:46:42.515Z,100613.97
2023-03-14T17:49:15.085Z,100614.59
2023-03-14T17:51:47.068Z,100623.53
2023-03-14T17:54:19.071Z,100622.41
2023-03-14T17:56:51.074Z,100638.97
2023-03-14T17:59:23.036Z,100639.50
2023-03-14T18:01:55.229Z,100649.19
2023-03-14T18:04:27.520Z,100661.13
2023-03-14T18:06:59.532Z,100658.38
2023-03-14T18:09:31.787Z,100665.28
2023-03-14T18:12:08.021Z,100662.19
2023-03-14T18:14:44.348Z,100671.63
2023-03-14T18:17:16.349Z,100677.53
2023-03-14T18:19:48.513Z,100672.81
2023-03-14T18:22:20.738Z,100670.63
2023-03-14T18:24:53.187Z,100678.03
2023-03-14T18:27:25.168Z,100691.19
2023-03-14T18:29:57.119Z,100682.91
2023-03-14T18:32:29.245Z,100702.97
2023-03-14T18:35:01.171Z,100704.56
2023-03-14T18:37:33.212Z,100716.81
2023-03-14T18:40:09.164Z,100718.13
2023-03-14T18:42:41.370Z,100723.06
2023-03-14T18:45:13.359Z,100734.41
2023-03-14T18:47:45.288Z,100693.38
2023-03-14T18:50:17.674Z,100732.69
2023-03-14T18:52:49.709Z,100742.25
2023-03-14T18:55:21.704Z,100736.00
2023-03-14T18:57:53.687Z,100745.78
2023-03-14T19:00:27.665Z,100749.81
2023-03-14T19:02:59.779Z,100744.31
2023-03-14T19:05:32.026Z,100745.28
2023-03-14T19:08:04.594Z,100745.97
2023-03-14T19:10:36.759Z,100739.50
2023-03-14T19:13:08.886Z,100761.69
2023-03-14T19:15:43.024Z,100759.72
2023-03-14T19:18:15.490Z,100761.31
2023-03-14T19:20:58.870Z,100762.81
2023-03-14T19:23:33.535Z,100767.84
2023-03-14T19:26:06.174Z,100769.16
2023-03-14T19:28:38.188Z,100777.56
2023-03-14T19:31:10.382Z,100778.34
2023-03-14T19:33:42.691Z,100780.06
2023-03-14T19:36:31.196Z,100784.22
2023-03-14T19:39:06.260Z,100790.38
2023-03-14T19:41:38.262Z,100794.84
2023-03-14T19:44:13.112Z,100793.00
2023-03-14T19:46:45.047Z,100758.53
2023-03-14T19:49:17.240Z,100808.28
2023-03-14T19:51:50.015Z,100776.63
2023-03-14T19:54:23.280Z,100811.59
2023-03-14T19:56:55.532Z,100814.88
2023-03-14T19:59:27.577Z,100818.31
2023-03-14T20:01:59.714Z,100814.63
2023-03-14T20:04:33.729Z,100801.31
2023-03-14T20:07:05.794Z,100813.63
2023-03-14T20:09:37.807Z,100820.38
2023-03-14T20:12:09.879Z,100815.56
2023-03-14T20:14:42.021Z,100812.56
2023-03-14T20:17:14.193Z,100820.66
2023-03-14T20:19:46.337Z,100828.16
2023-03-14T20:22:18.361Z,100818.28
2023-03-14T20:24:52.621Z,100827.84
2023-03-14T20:27:24.608Z,100831.16
2023-03-14T20:29:57.730Z,100839.78
2023-03-14T20:32:30.553Z,100834.13
2023-03-14T20:35:02.804Z,100827.25
2023-03-14T20:37:34.876Z,100825.34
2023-03-14T20:40:09.487Z,100833.34
2023-03-14T20:42:41.440Z,100845.75
2023-03-14T20:45:13.503Z,100843.50
2023-03-14T20:47:45.532Z,100853.94
2023-03-14T20:50:17.808Z,100855.50
2023-03-14T20:52:49.842Z,100850.72
2023-03-14T20:55:21.828Z,100812.94
2023-03-14T20:57:53.788Z,100849.41
2023-03-14T21:00:25.748Z,100863.28
2023-03-14T21:02:57.727Z,100866.47
2023-03-14T21:05:29.725Z,100863.47
2023-03-14T21:08:01.759Z,100839.06
2023-03-14T21:10:34.780Z,100870.63
2023-03-14T21:13:06.955Z,100882.94
2023-03-14T21:15:39.082Z,100873.41
2023-03-14T21:18:11.763Z,100853.34
2023-03-14T21:20:43.987Z,100866.56
2023-03-14T21:23:17.869Z,100846.84
2023-03-14T21:25:50.994Z,100860.22
2023-03-14T21:28:24.510Z,100852.22
2023-03-14T21:30:56.909Z,100869.59
2023-03-14T21:33:29.068Z,100864.81
2023-03-14T21:36:01.798Z,100872.22
2023-03-14T21:38:34.031Z,100871.97
2023-03-14T21:41:07.928Z,100884.22
2023-03-14T21:43:42.206Z,100884.22
2023-03-14T21:46:15.172Z,100885.81
2023-03-14T21:48:47.584Z,100884.13
2023-03-14T21:51:20.094Z,100880.28
2023-03-14T21:53:52.047Z,100895.78
2023-03-14T21:56:26.982Z,100881.44
2023-03-14T21:59:00.055Z,100883.06
2023-03-14T22:01:32.576Z,100876.06
2023-03-14T22:04:04.669Z,100887.47
2023-03-14T22:06:36.682Z,100884.88
2023-03-14T22:09:08.809Z,100881.44
2023-03-14T22:11:40.853Z,100891.69
2023-03-14T22:14:12.749Z,100890.63
2023-03-14T22:16:44.660Z,100872.22
2023-03-14T22:19:16.654Z,100908.09
2023-03-14T22:21:49.437Z,100895.63
2023-03-14T22:24:21.469Z,100914.78
2023-03-14T22:26:55.279Z,100917.13
2023-03-14T22:29:27.393Z,100922.06
2023-03-14T22:31:59.351Z,100920.84
2023-03-14T22:34:31.898Z,100910.09
2023-03-14T22:37:06.781Z,100931.28
2023-03-14T22:39:38.706Z,100930.16
2023-03-14T22:42:10.739Z,100938.94
2023-03-14T22:44:42.667Z,100938.94
2023-03-14T22:47:14.651Z,100945.94
2023-03-14T22:49:46.773Z,100953.94
2023-03-14T22:52:18.771Z,100962.56
2023-03-14T22:54:55.765Z,100965.31
2023-03-14T22:57:28.794Z,100983.66
2023-03-14T23:00:00.750Z,100979.19
2023-03-14T23:02:32.730Z,100980.78
2023-03-14T23:05:05.134Z,100998.75
2023-03-14T23:07:37.130Z,100998.81
2023-03-14T23:10:10.552Z,101007.56
2023-03-14T23:12:45.307Z,101009.97
2023-03-14T23:15:17.369Z,101005.34
2023-03-14T23:17:49.338Z,101002.53
2023-03-14T23:20:21.298Z,100998.94
2023-03-14T23:22:53.294Z,100997.25
2023-03-14T23:25:25.364Z,100999.56
2023-03-14T23:27:57.304Z,101008.38
2023-03-14T23:30:29.489Z,101003.88
2023-03-14T23:33:01.574Z,101005.59
2023-03-14T23:35:33.552Z,101010.88
2023-03-14T23:38:05.568Z,101017.16
2023-03-14T23:40:37.568Z,101008.44
2023-03-14T23:43:09.551Z,101017.34
2023-03-14T23:45:41.531Z,101019.88
2023-03-14T23:48:13.435Z,101023.16
2023-03-14T23:50:45.397Z,101022.56
2023-03-14T23:53:17.367Z,101019.94
2023-03-14T23:55:49.646Z,101028.47
2023-03-14T23:58:23.544Z,101025.16
